Keene, Nebraska
Current Conditions -  °F | °C
As of 6:15 PM on Friday 21 Nov 2014 (Local Time) from KHDE Reporting Station
Clear Clear  
Wind Chill: 29°   Ceiling: Unl
Heat Index: 33°   Visibility: 10mi
Dew Point: 22°   Wind: 5mph
Humidity: 64%   Direction: 140°SE
Pressure: 29.95"   Gusts: NA
Location:  40.5474°N, 99.1227°W
Report Text: KHDE 220015Z AUTO 14004KT 10SM CLR 01/M05 A2995 RMK AO2 T00081054
Loading
Personal Weather Stations






























Interactive Weather Map New forecast layout! Learn more

10-Day Weather Forecast

Advertisements
Track Severe Weather on mobile